Time;durP1;ratioP1;P1;durP2;ratioP2;P2;SDS_P1;SDS_P2;PMS_P1;PMS_P2;Temp;Humidity;BMP_temperature;BMP_pressure;BME280_temperature;BME280_humidity;BME280_pressure;Samples;Min_cycle;Max_cycle;Signal;HPM_P1;HPM_P2
2022/04/13 00:01:46;;;;;;;75.03;38.23;;;;;;;7.14;66.11;94968.06;4970977;28;20219;-77
2022/04/13 00:04:14;;;;;;;70.47;39.57;;;;;;;7.04;67.50;94970.22;4969420;28;20204;-77
2022/04/13 00:06:40;;;;;;;57.67;30.03;;;;;;;7.06;67.54;94969.03;4968707;28;20750;-76
2022/04/13 00:09:08;;;;;;;50.13;27.87;;;;;;;6.98;67.42;94976.94;4966932;28;20204;-76
2022/04/13 00:11:36;;;;;;;60.07;32.40;;;;;;;7.00;67.83;94974.94;4970688;28;20227;-76
2022/04/13 00:14:03;;;;;;;44.70;24.90;;;;;;;6.99;67.71;94968.16;4968280;28;20216;-75
2022/04/13 00:16:30;;;;;;;39.77;22.20;;;;;;;6.96;67.06;94967.75;4969612;28;20198;-76
2022/04/13 00:18:58;;;;;;;46.20;23.77;;;;;;;6.92;67.69;94963.97;4966951;28;20640;-76
2022/04/13 00:21:24;;;;;;;38.20;20.87;;;;;;;6.80;67.82;94963.66;4964788;28;20200;-75
2022/04/13 00:23:51;;;;;;;42.40;21.73;;;;;;;6.76;68.71;94965.81;4968497;28;20200;-76
2022/04/13 00:26:18;;;;;;;40.50;19.70;;;;;;;6.76;67.94;94965.81;4973288;28;21051;-76
2022/04/13 00:28:46;;;;;;;37.93;19.23;;;;;;;6.68;68.77;94971.13;4968706;28;20211;-76
2022/04/13 00:31:13;;;;;;;33.40;18.27;;;;;;;6.62;68.43;94955.56;4967810;28;20227;-76
2022/04/13 00:33:40;;;;;;;28.53;15.83;;;;;;;6.68;67.92;94965.16;4968631;28;20215;-76
2022/04/13 00:36:07;;;;;;;32.40;14.97;;;;;;;6.71;67.11;94964.78;4968661;28;20204;-75
2022/04/13 00:38:34;;;;;;;25.63;14.53;;;;;;;6.59;68.08;94951.56;4966784;28;20284;-76
2022/04/13 00:41:01;;;;;;;24.20;12.70;;;;;;;6.63;67.77;94964.91;4972029;28;20205;-76
2022/04/13 00:43:27;;;;;;;29.70;13.93;;;;;;;6.54;68.33;94963.44;4972883;28;20197;-76
2022/04/13 00:45:55;;;;;;;28.07;12.63;;;;;;;6.48;68.29;94977.09;4968421;28;20255;-75
2022/04/13 00:48:29;;;;;;;23.00;12.63;;;;;;;6.52;68.13;94968.00;4978076;28;20204;-75
2022/04/13 00:50:56;;;;;;;18.73;11.00;;;;;;;6.48;68.00;94967.56;4975020;28;20287;-75
2022/04/13 00:53:25;;;;;;;19.20;11.27;;;;;;;6.40;68.27;94962.53;4973647;28;20196;-76
2022/04/13 00:55:56;;;;;;;20.47;10.33;;;;;;;6.43;67.04;94966.53;4978195;28;20200;-76
2022/04/13 00:58:29;;;;;;;20.50;10.47;;;;;;;6.44;66.87;94974.06;4978617;28;20644;-78
2022/04/13 01:00:58;;;;;;;20.90;10.43;;;;;;;6.48;66.84;94975.31;4976072;28;20289;-76
2022/04/13 01:03:27;;;;;;;17.63;10.10;;;;;;;6.51;66.34;94976.72;4974481;28;20207;-76
2022/04/13 01:05:54;;;;;;;16.50;9.27;;;;;;;6.51;66.41;94974.94;4970511;28;20204;-75
2022/04/13 01:08:22;;;;;;;16.13;9.60;;;;;;;6.49;65.87;94976.91;4977054;28;20207;-77
2022/04/13 01:11:04;;;;;;;16.43;9.07;;;;;;;6.42;66.29;94970.88;4975313;28;20212;-76
2022/04/13 01:13:38;;;;;;;18.47;10.10;;;;;;;6.47;66.59;94978.88;4972789;28;20192;-76
2022/04/13 01:16:13;;;;;;;16.73;9.23;;;;;;;6.41;66.45;94969.28;4973442;28;20208;-76
2022/04/13 01:18:41;;;;;;;24.73;10.47;;;;;;;6.37;67.80;94980.16;4973187;28;20750;-76
2022/04/13 01:21:13;;;;;;;20.63;10.00;;;;;;;6.36;67.23;94973.38;4975293;28;20260;-75
2022/04/13 01:23:56;;;;;;;23.17;10.17;;;;;;;6.38;67.09;94974.03;4974682;28;20208;-77
2022/04/13 01:26:23;;;;;;;18.33;10.20;;;;;;;6.31;67.58;94976.53;4972384;28;20196;-74
2022/04/13 01:28:54;;;;;;;21.63;10.90;;;;;;;6.26;68.14;94973.72;4977011;28;20208;-75
2022/04/13 01:31:24;;;;;;;16.80;10.20;;;;;;;6.18;67.25;94963.47;4977449;28;20235;-75
2022/04/13 01:33:51;;;;;;;17.33;10.63;;;;;;;6.11;68.47;94972.94;4972638;28;20292;-75
2022/04/13 01:36:29;;;;;;;17.93;10.37;;;;;;;6.07;68.14;94971.69;4972720;28;20204;-76
2022/04/13 01:38:58;;;;;;;18.27;10.07;;;;;;;6.08;67.46;94974.13;4984112;28;20228;-74
2022/04/13 01:41:26;;;;;;;17.63;10.53;;;;;;;6.04;68.39;94975.44;4989903;28;20195;-75
2022/04/13 01:43:57;;;;;;;16.83;10.40;;;;;;;6.06;68.01;94972.72;4998616;28;20711;-75
2022/04/13 01:46:25;;;;;;;20.27;11.27;;;;;;;6.03;68.61;94973.06;4987066;28;20211;-76
2022/04/13 01:49:02;;;;;;;18.23;11.30;;;;;;;5.97;68.90;94963.47;4991083;28;20224;-76
2022/04/13 01:51:28;;;;;;;20.77;12.13;;;;;;;5.90;70.55;94972.91;4991264;28;20234;-76
2022/04/13 01:53:57;;;;;;;23.60;12.40;;;;;;;5.78;71.50;94964.81;4992189;28;20201;-76
2022/04/13 01:56:23;;;;;;;24.30;12.20;;;;;;;5.76;71.15;94953.88;4990417;28;20259;-75
2022/04/13 01:58:50;;;;;;;20.43;11.70;;;;;;;5.75;71.88;94962.59;4993821;28;20692;-76
2022/04/13 02:01:19;;;;;;;15.70;10.60;;;;;;;5.74;72.33;94963.59;4989609;28;20210;-77
2022/04/13 02:03:46;;;;;;;24.10;12.10;;;;;;;5.65;72.58;94965.47;4988229;28;20302;-76
2022/04/13 02:06:14;;;;;;;21.10;12.03;;;;;;;5.68;71.86;94962.50;4994596;28;20686;-76
2022/04/13 02:08:41;;;;;;;25.37;12.43;;;;;;;5.63;72.00;94949.34;4992004;28;20199;-76
2022/04/13 02:11:10;;;;;;;27.60;14.27;;;;;;;5.68;72.02;94962.50;4991767;28;20193;-75
2022/04/13 02:13:38;;;;;;;29.13;15.80;;;;;;;5.53;73.38;94958.34;4990398;28;20651;-76
2022/04/13 02:16:05;;;;;;;43.83;22.70;;;;;;;5.47;73.97;94959.06;4991879;28;20673;-78
2022/04/13 02:18:32;;;;;;;42.07;24.30;;;;;;;5.42;72.73;94959.63;4994020;28;20206;-78
2022/04/13 02:20:59;;;;;;;44.73;23.03;;;;;;;5.40;72.51;94958.16;4996983;28;20210;-78
2022/04/13 02:23:26;;;;;;;27.27;15.77;;;;;;;5.44;72.48;94962.81;4994567;28;20209;-78
2022/04/13 02:25:53;;;;;;;25.33;14.73;;;;;;;5.39;72.50;94966.91;4996269;28;20202;-79
2022/04/13 02:28:21;;;;;;;24.63;15.10;;;;;;;5.37;72.73;94958.56;4988420;28;20617;-78
2022/04/13 02:30:48;;;;;;;31.80;18.80;;;;;;;5.31;72.70;94954.13;4990026;28;20214;-79
2022/04/13 02:33:15;;;;;;;32.17;18.40;;;;;;;5.35;72.46;94957.91;4991987;28;20342;-78
2022/04/13 02:35:42;;;;;;;35.33;21.23;;;;;;;5.36;72.56;94951.78;4986913;28;20235;-78
2022/04/13 02:38:09;;;;;;;35.40;21.67;;;;;;;5.32;74.80;94958.25;4995403;28;20229;-79
2022/04/13 02:40:36;;;;;;;43.73;23.37;;;;;;;5.34;75.57;94956.34;4988706;28;20288;-79
2022/04/13 02:43:03;;;;;;;38.37;20.43;;;;;;;5.38;74.79;94954.97;4988726;28;20198;-78
2022/04/13 02:45:31;;;;;;;40.33;22.63;;;;;;;5.28;75.00;94957.03;4986911;28;20202;-77
2022/04/13 02:47:58;;;;;;;37.57;21.70;;;;;;;5.32;75.54;94956.50;4987226;28;20207;-77
2022/04/13 02:50:25;;;;;;;43.90;24.23;;;;;;;5.28;74.99;94952.66;4985759;28;20633;-77
2022/04/13 02:52:54;;;;;;;55.27;29.83;;;;;;;5.26;75.49;94944.31;4988018;28;20220;-77
2022/04/13 02:55:21;;;;;;;75.83;39.67;;;;;;;5.26;74.92;94952.06;4987886;28;20222;-78
2022/04/13 02:57:48;;;;;;;66.53;35.53;;;;;;;5.21;75.05;94953.56;4987396;28;20207;-78
2022/04/13 03:00:16;;;;;;;73.73;33.30;;;;;;;5.22;74.66;94955.19;4988073;28;20211;-78
2022/04/13 03:02:44;;;;;;;68.87;35.63;;;;;;;5.27;74.22;94950.28;4987041;28;20233;-77
2022/04/13 03:05:11;;;;;;;68.63;37.53;;;;;;;5.23;74.60;94961.91;4987171;28;20210;-78
2022/04/13 03:07:38;;;;;;;76.90;39.90;;;;;;;5.25;74.85;94963.34;4986967;28;20214;-79
2022/04/13 03:10:06;;;;;;;88.20;42.13;;;;;;;5.21;75.62;94969.03;4986101;28;20222;-78
2022/04/13 03:12:34;;;;;;;83.90;38.33;;;;;;;5.23;74.60;94967.06;4986427;28;20686;-78
2022/04/13 03:15:01;;;;;;;73.33;37.13;;;;;;;5.21;75.52;94971.59;4987050;28;20207;-78
2022/04/13 03:17:28;;;;;;;77.87;35.87;;;;;;;5.18;76.17;94966.78;4985839;28;20294;-78
2022/04/13 03:19:57;;;;;;;70.70;31.73;;;;;;;5.21;75.44;94963.88;4987132;28;20208;-78
2022/04/13 03:22:24;;;;;;;64.07;30.73;;;;;;;5.15;76.60;94965.38;4987033;28;20195;-78
2022/04/13 03:24:52;;;;;;;69.03;30.73;;;;;;;5.11;77.00;94972.66;4987307;28;20299;-78
2022/04/13 03:27:19;;;;;;;57.97;30.50;;;;;;;5.15;76.80;94971.34;4987826;28;20197;-80
2022/04/13 03:29:45;;;;;;;53.63;27.83;;;;;;;5.16;77.44;94964.41;4988317;28;20213;-80
2022/04/13 03:32:12;;;;;;;44.67;20.57;;;;;;;5.13;77.36;94959.63;4989012;28;20214;-80
2022/04/13 03:34:39;;;;;;;58.23;22.07;;;;;;;5.00;78.04;94967.94;4989116;28;20210;-79
2022/04/13 03:37:07;;;;;;;49.83;22.13;;;;;;;5.01;78.59;94973.91;4987287;28;20198;-72
2022/04/13 03:39:34;;;;;;;43.73;19.63;;;;;;;4.89;79.80;94975.28;4968739;28;20308;-73
2022/04/13 03:42:01;;;;;;;35.77;15.63;;;;;;;4.87;77.97;94972.91;4967748;28;20202;-73
2022/04/13 03:44:28;;;;;;;36.27;13.10;;;;;;;4.87;76.13;94972.91;4976811;28;20199;-73
2022/04/13 03:46:54;;;;;;;22.90;10.83;;;;;;;4.87;74.79;94972.91;4970404;28;20203;-73
2022/04/13 03:49:21;;;;;;;33.80;14.10;;;;;;;4.87;77.09;94975.47;4970346;28;20652;-73
2022/04/13 03:51:48;;;;;;;36.67;15.53;;;;;;;4.92;nan;94980.91;4970246;28;20232;-73
2022/04/13 03:54:16;;;;;;;37.70;16.47;;;;;;;4.90;78.32;94977.69;4968103;28;20258;-73
2022/04/13 03:56:43;;;;;;;31.47;15.00;;;;;;;4.93;78.77;94972.22;4969043;28;20213;-73
2022/04/13 03:59:10;;;;;;;40.27;15.47;;;;;;;4.98;78.45;94981.97;4971115;28;20198;-73
2022/04/13 04:01:37;;;;;;;41.47;19.47;;;;;;;4.98;78.80;94980.19;4963988;28;20212;-73
2022/04/13 04:04:04;;;;;;;34.47;17.47;;;;;;;4.95;78.57;94985.69;4965629;28;20649;-72
2022/04/13 04:06:31;;;;;;;38.03;17.50;;;;;;;4.99;78.43;94999.03;4970358;28;20205;-73
2022/04/13 04:08:57;;;;;;;35.27;16.83;;;;;;;4.89;78.55;94993.31;4969493;28;20223;-73
2022/04/13 04:11:26;;;;;;;43.57;19.30;;;;;;;4.82;78.85;94990.63;4964757;28;20211;-73
2022/04/13 04:13:53;;;;;;;36.63;18.73;;;;;;;4.81;79.12;95003.69;4970172;28;20217;-74
2022/04/13 04:16:19;;;;;;;38.63;18.37;;;;;;;4.84;79.02;95008.50;4970171;28;20208;-73
2022/04/13 04:18:48;;;;;;;42.57;18.73;;;;;;;4.84;78.74;95011.88;4967069;28;20903;-73
2022/04/13 04:21:15;;;;;;;29.07;16.37;;;;;;;4.90;78.28;95005.22;4966471;28;20272;-73
2022/04/13 04:23:42;;;;;;;35.47;15.17;;;;;;;5.00;77.65;95010.91;4967628;28;20641;-73
2022/04/13 04:26:09;;;;;;;24.13;13.30;;;;;;;5.05;77.28;95011.97;4970861;28;20202;-73
2022/04/13 04:28:37;;;;;;;22.30;12.57;;;;;;;5.06;77.40;95011.03;4967187;28;20197;-73
2022/04/13 04:31:04;;;;;;;22.57;10.50;;;;;;;5.04;76.29;95014.75;4967911;28;20209;-73
2022/04/13 04:33:31;;;;;;;24.30;11.10;;;;;;;5.08;76.23;95026.28;4968164;28;20223;-73
2022/04/13 04:35:58;;;;;;;32.00;12.67;;;;;;;5.17;73.69;95032.97;4967273;28;20203;-72
2022/04/13 04:38:27;;;;;;;27.40;13.03;;;;;;;5.18;74.39;95037.16;4976473;28;20605;-72
2022/04/13 04:40:53;;;;;;;36.37;14.57;;;;;;;5.23;73.57;95039.19;4986714;28;20214;-72
2022/04/13 04:43:21;;;;;;;37.43;14.93;;;;;;;5.27;74.29;95054.13;4987234;28;20209;-73
2022/04/13 04:45:49;;;;;;;32.03;15.57;;;;;;;5.36;73.89;95054.84;4974809;28;20229;-73
2022/04/13 04:48:16;;;;;;;37.80;14.60;;;;;;;5.38;73.93;95056.28;4975861;28;20211;-73
2022/04/13 04:50:44;;;;;;;32.47;13.20;;;;;;;5.44;73.90;95055.59;4986212;28;20202;-73
2022/04/13 04:53:11;;;;;;;33.43;12.07;;;;;;;5.48;73.25;95050.88;4989713;28;20610;-74
2022/04/13 04:55:39;;;;;;;26.93;12.20;;;;;;;5.48;73.16;95056.81;4986095;28;20207;-73
2022/04/13 04:58:09;;;;;;;21.13;11.00;;;;;;;5.50;71.43;95064.38;4986912;28;20213;-73
2022/04/13 05:00:36;;;;;;;25.97;10.50;;;;;;;5.55;70.75;95069.81;4988524;28;20202;-72
2022/04/13 05:03:05;;;;;;;24.70;10.60;;;;;;;5.54;70.71;95074.16;4987862;28;20211;-74
2022/04/13 05:05:36;;;;;;;18.70;10.20;;;;;;;5.63;70.35;95075.66;4988280;28;20211;-74
2022/04/13 05:08:13;;;;;;;17.57;9.77;;;;;;;5.63;69.50;95083.41;4988359;28;20211;-74
2022/04/13 05:10:41;;;;;;;19.13;8.73;;;;;;;5.58;68.31;95075.41;4985396;28;20209;-74
2022/04/13 05:13:13;;;;;;;16.17;8.67;;;;;;;5.62;67.71;95081.81;4988573;28;20227;-72
2022/04/13 05:15:48;;;;;;;12.03;8.03;;;;;;;5.65;66.96;95080.66;4987220;28;20210;-72
2022/04/13 05:18:17;;;;;;;18.10;9.10;;;;;;;5.71;66.82;95085.91;4985945;28;20324;-75
2022/04/13 05:20:43;;;;;;;16.30;8.87;;;;;;;5.71;66.43;95083.31;4984371;28;20207;-79
2022/04/13 05:23:10;;;;;;;19.20;10.43;;;;;;;5.66;67.06;95066.78;4985411;28;20228;-79
2022/04/13 05:25:38;;;;;;;26.00;11.97;;;;;;;5.53;68.75;95070.00;4985251;28;20226;-77
2022/04/13 05:28:10;;;;;;;23.37;10.70;;;;;;;5.58;69.40;95083.16;4975625;28;20206;-78
2022/04/13 05:30:37;;;;;;;23.07;9.07;;;;;;;5.58;68.00;95090.06;4985128;28;20204;-72
2022/04/13 05:33:05;;;;;;;24.10;9.60;;;;;;;5.64;68.40;95085.03;4989715;28;20226;-72
2022/04/13 05:35:34;;;;;;;19.77;8.77;;;;;;;5.71;68.19;95085.13;4992153;28;20205;-71
2022/04/13 05:38:02;;;;;;;14.00;7.47;;;;;;;5.59;67.13;95083.94;4990481;28;20708;-70
2022/04/13 05:40:59;;;;;;;17.90;7.50;;;;;;;5.64;66.33;95085.03;4975049;28;20205;-72
2022/04/13 05:43:28;;;;;;;18.20;8.07;;;;;;;5.64;66.89;95072.13;4988072;28;20195;-73
2022/04/13 05:45:55;;;;;;;17.63;8.03;;;;;;;5.81;65.92;95079.69;4988326;28;20196;-71
2022/04/13 05:48:22;;;;;;;16.60;7.50;;;;;;;5.94;65.60;95095.38;4990180;28;20204;-71
2022/04/13 05:50:51;;;;;;;15.20;8.00;;;;;;;6.03;65.31;95089.94;4989699;28;20209;-72
2022/04/13 05:53:18;;;;;;;19.97;9.00;;;;;;;6.18;65.63;95088.13;4989703;28;20325;-71
2022/04/13 05:55:44;;;;;;;16.43;8.70;;;;;;;6.27;66.21;95076.75;4988353;28;20222;-73
2022/04/13 05:58:11;;;;;;;17.67;9.07;;;;;;;6.37;66.13;95076.47;4989182;28;20288;-72
2022/04/13 06:00:39;;;;;;;14.67;9.57;;;;;;;6.39;65.50;95069.34;4989173;28;20261;-72
2022/04/13 06:03:06;;;;;;;14.50;9.50;;;;;;;6.54;64.55;95083.00;4989921;28;20227;-79
2022/04/13 06:05:33;;;;;;;22.57;9.53;;;;;;;6.65;63.82;95087.69;4988968;28;20211;-78
2022/04/13 06:08:01;;;;;;;17.57;9.63;;;;;;;6.76;63.20;95084.63;4993623;28;20198;-80
2022/04/13 06:10:28;;;;;;;24.57;9.60;;;;;;;6.80;62.88;95085.88;4988511;28;20200;-80
2022/04/13 06:12:55;;;;;;;19.67;9.87;;;;;;;6.86;62.67;95081.75;4986332;28;20543;-80
2022/04/13 06:15:24;;;;;;;16.37;9.37;;;;;;;7.00;62.23;95087.81;4988955;28;20594;-80
2022/04/13 06:17:50;;;;;;;18.10;9.30;;;;;;;7.13;61.32;95090.53;4993243;28;20223;-83
2022/04/13 06:20:17;;;;;;;15.33;9.30;;;;;;;7.15;60.89;95086.78;4992861;28;20212;-84
2022/04/13 06:22:44;;;;;;;15.20;8.60;;;;;;;7.24;61.13;95092.63;4991414;28;20196;-79
2022/04/13 06:25:13;;;;;;;21.27;9.57;;;;;;;7.24;61.13;95090.03;4991534;28;20582;-81
2022/04/13 06:27:41;;;;;;;18.43;8.77;;;;;;;7.38;60.82;95096.91;4991742;28;20207;-82
2022/04/13 06:30:09;;;;;;;30.40;9.83;;;;;;;7.44;60.18;95102.09;4991024;28;20200;-81
2022/04/13 06:32:37;;;;;;;18.90;9.93;;;;;;;7.38;60.02;95083.97;4988839;28;20216;-80
2022/04/13 06:35:06;;;;;;;21.97;10.53;;;;;;;7.54;60.57;95101.78;4989947;28;20197;-80
2022/04/13 06:37:33;;;;;;;17.77;9.70;;;;;;;7.64;59.82;95098.88;4988504;28;20192;-80
2022/04/13 06:40:00;;;;;;;21.60;10.33;;;;;;;7.66;59.49;95099.50;4992179;28;20200;-81
2022/04/13 06:42:28;;;;;;;20.63;10.20;;;;;;;7.72;59.10;95094.38;4990149;28;20574;-79
2022/04/13 06:44:55;;;;;;;20.73;12.07;;;;;;;7.80;58.94;95093.41;4988429;28;20683;-80
2022/04/13 06:47:22;;;;;;;20.93;11.13;;;;;;;7.78;59.55;95097.97;4989479;28;20193;-80
2022/04/13 06:49:49;;;;;;;19.80;10.67;;;;;;;7.87;58.90;95094.25;4988789;28;20286;-79
2022/04/13 06:52:16;;;;;;;17.93;11.23;;;;;;;7.99;58.68;95093.53;4989409;28;20582;-80
2022/04/13 06:54:44;;;;;;;19.37;11.77;;;;;;;8.12;58.38;95089.41;4994272;28;20232;-81
2022/04/13 06:57:10;;;;;;;21.73;10.83;;;;;;;8.15;58.32;95092.41;4991007;28;20199;-80
2022/04/13 06:59:39;;;;;;;18.23;11.63;;;;;;;8.11;57.24;95073.06;4993177;28;20658;-82
2022/04/13 07:02:06;;;;;;;21.87;11.93;;;;;;;8.31;57.56;95092.13;4990062;28;20200;-79
2022/04/13 07:04:34;;;;;;;22.27;11.83;;;;;;;8.39;56.85;95093.75;4991173;28;20207;-88
2022/04/13 07:07:01;;;;;;;21.13;11.73;;;;;;;8.44;56.61;95094.78;4993501;28;20283;-82
2022/04/13 07:09:28;;;;;;;18.17;11.03;;;;;;;8.53;56.82;95092.81;4993451;28;20204;-83
2022/04/13 07:11:54;;;;;;;19.83;10.97;;;;;;;8.64;55.80;95094.84;4988166;28;20287;-80
2022/04/13 07:14:22;;;;;;;23.30;11.73;;;;;;;8.65;55.96;95100.81;4994456;28;20702;-81
2022/04/13 07:16:50;;;;;;;23.30;12.17;;;;;;;8.65;56.06;95083.50;4990722;28;20982;-81
2022/04/13 07:19:17;;;;;;;17.40;11.23;;;;;;;8.66;55.69;95069.53;4990662;28;20235;-82
2022/04/13 07:21:44;;;;;;;23.87;11.80;;;;;;;8.86;55.56;95098.88;4990854;28;20596;-82
2022/04/13 07:24:12;;;;;;;23.10;11.97;;;;;;;8.94;54.50;95101.31;4990743;28;20279;-81
2022/04/13 07:26:39;;;;;;;19.97;10.80;;;;;;;9.00;53.46;95099.72;4990534;28;20629;-81
2022/04/13 07:29:06;;;;;;;24.70;11.23;;;;;;;9.06;53.30;95107.47;4990550;28;20212;-81
2022/04/13 07:31:33;;;;;;;27.50;11.57;;;;;;;9.01;53.60;95090.94;4990788;28;20192;-92
2022/04/13 07:34:02;;;;;;;26.43;12.33;;;;;;;9.00;53.06;95086.75;4992247;28;20222;-92
2022/04/13 07:36:30;;;;;;;23.93;11.23;;;;;;;9.25;52.02;95111.13;4993876;28;20283;-92
2022/04/13 07:38:57;;;;;;;23.17;11.30;;;;;;;9.11;51.70;95081.78;4989760;28;20244;-82
2022/04/13 07:41:24;;;;;;;19.63;11.17;;;;;;;9.16;51.93;95106.31;4990757;28;20607;-84
2022/04/13 07:43:52;;;;;;;17.63;10.97;;;;;;;9.26;52.16;95101.53;4989801;28;20578;-86
2022/04/13 07:46:21;;;;;;;19.07;10.17;;;;;;;9.45;51.48;95103.34;4991264;28;20278;-87
2022/04/13 07:48:48;;;;;;;18.97;10.60;;;;;;;9.57;50.59;95102.56;4988597;28;20208;-83
2022/04/13 07:51:17;;;;;;;17.50;9.70;;;;;;;9.64;50.60;95097.34;4990481;28;20208;-83
2022/04/13 07:53:43;;;;;;;22.70;11.37;;;;;;;9.67;50.68;95105.53;4987740;28;20736;-82
2022/04/13 07:56:10;;;;;;;24.70;10.90;;;;;;;9.80;50.94;95109.91;4989716;28;20203;-83
2022/04/13 07:58:37;;;;;;;20.13;9.83;;;;;;;9.90;49.56;95106.91;4989520;28;20574;-79
2022/04/13 08:01:04;;;;;;;18.27;10.53;;;;;;;10.01;48.79;95108.88;4989573;28;20645;-78
2022/04/13 08:03:31;;;;;;;19.50;11.23;;;;;;;10.00;48.66;95102.09;4990300;28;20196;-78
2022/04/13 08:05:58;;;;;;;21.73;10.27;;;;;;;10.05;48.83;95099.66;4991459;28;20620;-82
2022/04/13 08:08:26;;;;;;;23.33;11.07;;;;;;;10.05;48.23;95094.47;4991950;28;20682;-83
2022/04/13 08:10:53;;;;;;;14.90;9.30;;;;;;;10.13;47.10;95099.47;4989247;28;20196;-83
2022/04/13 08:13:20;;;;;;;20.27;9.87;;;;;;;10.05;46.94;95087.50;4990494;28;20581;-82
2022/04/13 08:15:46;;;;;;;15.97;9.57;;;;;;;10.14;46.63;95095.88;4989125;28;20737;-82
2022/04/13 08:18:13;;;;;;;18.13;9.87;;;;;;;10.26;47.09;95102.06;4989744;28;20196;-83
2022/04/13 08:20:40;;;;;;;19.47;9.83;;;;;;;10.34;46.22;95101.81;4990306;28;20200;-82
2022/04/13 08:23:07;;;;;;;15.80;9.67;;;;;;;10.37;46.19;95092.81;4990622;28;20208;-82
2022/04/13 08:25:36;;;;;;;16.07;9.27;;;;;;;10.49;45.74;95102.38;4989409;28;20206;-83
2022/04/13 08:28:04;;;;;;;18.03;9.00;;;;;;;10.57;46.52;95103.94;4990421;28;20204;-82
2022/04/13 08:30:31;;;;;;;14.90;7.50;;;;;;;10.72;44.09;95101.88;4989603;28;20619;-82
2022/04/13 08:32:57;;;;;;;19.03;7.30;;;;;;;10.86;44.69;95094.78;4989265;28;20208;-82
2022/04/13 08:35:24;;;;;;;13.87;7.87;;;;;;;10.95;44.14;95094.34;4990963;28;20220;-83
2022/04/13 08:37:51;;;;;;;16.47;6.97;;;;;;;11.02;42.81;95091.72;4996595;28;20231;-80
2022/04/13 08:40:19;;;;;;;11.03;5.80;;;;;;;11.28;41.32;95101.97;4990185;28;20199;-79
2022/04/13 08:42:57;;;;;;;13.50;5.93;;;;;;;11.38;40.89;95099.66;4988200;28;20211;-81
2022/04/13 08:45:25;;;;;;;9.03;5.53;;;;;;;11.59;39.34;95099.31;4990783;28;20200;-80
2022/04/13 08:47:56;;;;;;;16.30;7.37;;;;;;;11.72;38.16;95096.63;4989459;28;20196;-81
2022/04/13 08:50:26;;;;;;;7.73;5.63;;;;;;;11.60;36.70;95090.47;4989583;28;20682;-81
2022/04/13 08:52:57;;;;;;;12.83;6.13;;;;;;;11.67;37.76;95086.03;4989656;28;20232;-83
2022/04/13 08:55:25;;;;;;;11.57;6.33;;;;;;;11.72;37.52;95083.59;4989238;28;20224;-80
2022/04/13 08:58:08;;;;;;;16.77;6.37;;;;;;;11.79;38.80;95083.56;4989217;28;20200;-81
2022/04/13 09:00:41;;;;;;;9.43;5.90;;;;;;;11.87;38.59;95083.28;4988846;28;20196;-80
2022/04/13 09:03:19;;;;;;;8.17;5.10;;;;;;;12.01;38.85;95071.69;4991349;28;20303;-81
2022/04/13 09:05:49;;;;;;;10.03;6.00;;;;;;;12.20;38.36;95075.94;4991671;28;20203;-82
2022/04/13 09:08:21;;;;;;;10.23;5.70;;;;;;;12.36;36.81;95077.94;4993672;28;20207;-82
2022/04/13 09:10:49;;;;;;;13.27;5.67;;;;;;;12.51;36.38;95078.38;4991186;28;20500;-82
2022/04/13 09:13:19;;;;;;;7.70;5.43;;;;;;;12.58;35.18;95070.47;4992948;28;20204;-81
2022/04/13 09:15:47;;;;;;;11.17;5.83;;;;;;;12.69;34.61;95068.94;4992934;28;20235;-81
2022/04/13 09:18:14;;;;;;;11.17;6.27;;;;;;;12.73;34.83;95070.88;4990976;28;20203;-82
2022/04/13 09:20:41;;;;;;;12.77;5.60;;;;;;;12.82;35.66;95060.91;4993051;28;20286;-82
2022/04/13 09:23:09;;;;;;;8.43;5.33;;;;;;;12.91;35.60;95060.38;4993420;28;20215;-82
2022/04/13 09:25:37;;;;;;;14.87;6.63;;;;;;;13.17;34.20;95058.44;4990281;28;20199;-81
2022/04/13 09:28:05;;;;;;;12.23;5.93;;;;;;;13.41;34.19;95060.91;4997161;28;20640;-83
2022/04/13 09:30:34;;;;;;;9.67;5.40;;;;;;;13.69;34.95;95062.03;4993601;28;20200;-84
2022/04/13 09:33:03;;;;;;;11.27;5.07;;;;;;;14.00;32.98;95064.31;4993032;28;20208;-83
2022/04/13 09:35:32;;;;;;;10.47;4.80;;;;;;;14.30;31.75;95066.78;4995695;28;20359;-82
2022/04/13 09:38:02;;;;;;;7.63;4.70;;;;;;;14.48;31.83;95053.59;4992153;28;20782;-82
2022/04/13 09:40:36;;;;;;;7.67;4.70;;;;;;;14.76;31.81;95062.25;4990531;28;20231;-81
2022/04/13 09:43:10;;;;;;;7.87;4.50;;;;;;;14.93;31.08;95048.41;4990562;28;20188;-81
2022/04/13 09:45:43;;;;;;;11.47;4.10;;;;;;;15.20;31.73;95058.06;4989054;28;20223;-81
2022/04/13 09:48:12;;;;;;;5.47;3.97;;;;;;;15.45;31.82;95052.44;4990271;28;20620;-82
2022/04/13 09:50:40;;;;;;;6.87;4.20;;;;;;;15.73;30.50;95052.38;4989990;28;20280;-83
2022/04/13 09:53:08;;;;;;;6.90;4.40;;;;;;;15.90;30.42;95055.78;4990156;28;20203;-82
2022/04/13 09:55:38;;;;;;;8.70;4.30;;;;;;;16.13;30.68;95043.50;4987713;28;20623;-82
2022/04/13 09:58:10;;;;;;;5.73;4.20;;;;;;;16.44;30.57;95038.41;4990055;28;20279;-82
2022/04/13 10:00:39;;;;;;;8.50;4.37;;;;;;;16.72;29.19;95050.56;4988052;28;20208;-81
2022/04/13 10:03:14;;;;;;;5.33;3.73;;;;;;;16.35;29.21;95049.56;4990482;28;20207;-82
2022/04/13 10:05:45;;;;;;;7.80;4.13;;;;;;;16.59;30.19;95048.31;4988862;28;20200;-82
2022/04/13 10:08:14;;;;;;;11.40;4.17;;;;;;;16.79;29.77;95043.28;4989825;28;20196;-80
2022/04/13 10:10:42;;;;;;;4.70;3.53;;;;;;;17.16;29.34;95053.09;4989493;28;20204;-82
2022/04/13 10:13:09;;;;;;;5.10;3.83;;;;;;;17.42;28.65;95044.41;4989646;28;20282;-82
2022/04/13 10:15:38;;;;;;;5.10;4.00;;;;;;;17.68;28.20;95048.84;4988801;28;20220;-81
2022/04/13 10:18:06;;;;;;;8.53;4.03;;;;;;;17.81;29.02;95039.72;4989631;28;20196;-82
2022/04/13 10:20:43;;;;;;;6.50;4.00;;;;;;;17.82;29.17;95047.38;4989178;28;20239;-81
2022/04/13 10:23:10;;;;;;;6.27;4.10;;;;;;;17.91;29.79;95043.22;4989551;28;20203;-82
2022/04/13 10:25:37;;;;;;;6.50;4.03;;;;;;;18.22;28.50;95046.03;4989299;28;20211;-82
2022/04/13 10:28:05;;;;;;;4.70;3.65;;;;;;;18.36;27.79;95037.41;4989673;28;20208;-81
2022/04/13 10:30:33;;;;;;;7.57;3.57;;;;;;;18.56;27.60;95027.00;4988897;28;20192;-81
2022/04/13 10:33:04;;;;;;;6.10;3.85;;;;;;;18.76;27.08;95034.16;4989260;28;20299;-82
2022/04/13 10:35:33;;;;;;;7.85;4.05;;;;;;;18.98;27.25;95021.59;4988897;28;20215;-82
2022/04/13 10:38:01;;;;;;;8.27;3.75;;;;;;;19.21;27.67;95030.84;4989182;28;20236;-82
2022/04/13 10:40:31;;;;;;;6.82;4.00;;;;;;;19.39;27.48;95029.56;4989029;28;20192;-82
2022/04/13 10:43:01;;;;;;;9.88;3.53;;;;;;;19.48;27.52;95020.88;4986905;28;20227;-82
2022/04/13 10:45:29;;;;;;;5.22;3.83;;;;;;;19.86;26.56;95029.28;4988741;28;20207;-82
2022/04/13 10:48:04;;;;;;;6.88;3.78;;;;;;;19.95;26.07;95022.41;4989152;28;20199;-83
2022/04/13 10:50:39;;;;;;;8.25;3.78;;;;;;;19.88;25.83;95022.69;4988317;28;20689;-82
2022/04/13 10:53:19;;;;;;;6.40;3.75;;;;;;;20.14;25.90;95005.75;4988762;28;20192;-82
2022/04/13 10:55:52;;;;;;;8.90;3.53;;;;;;;20.18;25.64;95017.34;4988144;28;20808;-83
2022/04/13 10:58:25;;;;;;;7.28;3.45;;;;;;;20.28;24.73;95019.19;4989130;28;20197;-83
2022/04/13 11:00:58;;;;;;;8.27;3.47;;;;;;;20.34;24.13;95015.50;4989304;28;20613;-83
2022/04/13 11:03:30;;;;;;;5.72;3.72;;;;;;;20.38;24.28;95012.03;4988038;28;20624;-81
2022/04/13 11:05:58;;;;;;;4.78;3.42;;;;;;;20.56;24.21;95015.13;4989022;28;20184;-82
2022/04/13 11:08:31;;;;;;;5.57;3.40;;;;;;;20.97;24.14;95007.78;4988896;28;20628;-82
2022/04/13 11:10:58;;;;;;;4.50;3.35;;;;;;;20.90;23.19;95016.00;4986340;28;20208;-83
2022/04/13 11:13:31;;;;;;;5.57;3.47;;;;;;;20.95;23.27;95006.19;4989590;28;20211;-83
2022/04/13 11:16:13;;;;;;;5.68;3.53;;;;;;;20.84;23.03;94998.59;4988874;28;20235;-82
2022/04/13 11:18:41;;;;;;;6.55;3.72;;;;;;;20.79;23.67;94998.63;4988671;28;20214;-82
2022/04/13 11:21:08;;;;;;;5.43;3.28;;;;;;;20.80;24.01;94997.56;4989102;28;20200;-80
2022/04/13 11:23:52;;;;;;;4.13;3.03;;;;;;;21.19;23.08;94998.41;4988398;28;20235;-82
2022/04/13 11:26:28;;;;;;;7.53;3.58;;;;;;;21.58;23.27;94993.09;4989023;28;20203;-81
2022/04/13 11:29:18;;;;;;;5.55;3.47;;;;;;;21.86;22.84;95002.88;4987778;28;20208;-81
2022/04/13 11:32:11;;;;;;;5.95;3.35;;;;;;;22.04;22.79;94991.63;4987690;28;20295;-81
2022/04/13 11:34:41;;;;;;;5.55;3.33;;;;;;;22.06;22.85;94996.63;4986299;28;20722;-82